Time;durP1;ratioP1;P1;durP2;ratioP2;P2;SDS_P1;SDS_P2;PMS_P1;PMS_P2;Temp;Humidity;BMP_temperature;BMP_pressure;BME280_temperature;BME280_humidity;BME280_pressure;Samples;Min_cycle;Max_cycle;Signal;HPM_P1;HPM_P2
2022/05/29 00:02:05;;;;;;;3.65;0.90;;;;;;;18.47;29.12;98457.69;4472336;32;20433;-85
2022/05/29 00:04:31;;;;;;;5.40;0.88;;;;;;;18.49;29.23;98466.38;4472403;32;20129;-85
2022/05/29 00:06:57;;;;;;;3.17;0.70;;;;;;;18.39;28.70;98461.06;4471928;32;20117;-85
2022/05/29 00:09:31;;;;;;;1.90;0.73;;;;;;;18.39;28.30;98460.22;4472242;32;20383;-85
2022/05/29 00:11:58;;;;;;;2.62;0.80;;;;;;;18.39;28.92;98452.22;4471007;32;20100;-85
2022/05/29 00:14:23;;;;;;;2.80;0.82;;;;;;;18.40;29.49;98452.06;4472267;32;20562;-85
2022/05/29 00:16:49;;;;;;;2.17;0.90;;;;;;;18.44;29.99;98450.78;4470918;32;20108;-85
2022/05/29 00:19:14;;;;;;;1.37;0.68;;;;;;;18.47;29.52;98442.50;4470872;32;20101;-85
2022/05/29 00:21:40;;;;;;;1.37;0.60;;;;;;;18.46;29.57;98448.81;4472196;32;20120;-85
2022/05/29 00:24:06;;;;;;;1.70;0.73;;;;;;;18.42;29.71;98446.59;4470928;32;20342;-85
2022/05/29 00:26:32;;;;;;;2.90;0.90;;;;;;;18.45;29.75;98449.81;4470867;32;20108;-85
2022/05/29 00:28:58;;;;;;;3.03;0.77;;;;;;;18.46;29.79;98442.62;4471981;32;20126;-85
2022/05/29 00:31:23;;;;;;;4.43;0.95;;;;;;;18.39;29.94;98445.03;4471980;32;20365;-85
2022/05/29 00:33:49;;;;;;;6.53;0.80;;;;;;;18.43;29.22;98441.09;4472029;32;20138;-85
2022/05/29 00:36:16;;;;;;;3.85;0.95;;;;;;;18.38;29.43;98440.69;4471959;32;20080;-85
2022/05/29 00:38:44;;;;;;;3.65;0.90;;;;;;;18.40;29.47;98440.56;4470777;32;20127;-85
2022/05/29 00:41:22;;;;;;;6.22;0.90;;;;;;;18.41;29.50;98435.06;4470932;32;20096;-85
2022/05/29 00:44:15;;;;;;;5.60;0.98;;;;;;;18.44;29.50;98428.59;4471964;32;20103;-85
2022/05/29 00:46:52;;;;;;;2.12;0.80;;;;;;;18.42;29.20;98430.56;4471786;32;20166;-85
2022/05/29 00:49:22;;;;;;;2.60;0.80;;;;;;;18.35;29.38;98422.31;4470958;32;20155;-85
2022/05/29 00:52:21;;;;;;;2.92;0.70;;;;;;;18.41;29.63;98420.91;4472119;32;20111;-85
2022/05/29 00:55:01;;;;;;;1.87;0.70;;;;;;;18.47;29.61;98412.34;4467732;32;20124;-82
2022/05/29 00:57:26;;;;;;;2.60;0.82;;;;;;;18.46;29.35;98408.81;4486533;32;20777;-83
2022/05/29 00:59:54;;;;;;;2.25;0.70;;;;;;;18.45;29.52;98415.13;4487549;31;20192;-83
2022/05/29 01:02:22;;;;;;;3.30;0.80;;;;;;;18.44;29.27;98409.94;4486499;32;20106;-83
2022/05/29 01:04:47;;;;;;;1.75;0.70;;;;;;;18.42;29.18;98402.06;4486650;32;20111;-83
2022/05/29 01:07:15;;;;;;;4.12;1.00;;;;;;;18.42;29.15;98403.91;4487274;31;20100;-84
2022/05/29 01:09:42;;;;;;;3.50;0.98;;;;;;;18.44;29.31;98397.44;4487584;31;20092;-83
2022/05/29 01:12:27;;;;;;;1.92;0.70;;;;;;;18.47;29.65;98393.66;4487702;31;20085;-84
2022/05/29 01:15:03;;;;;;;3.37;0.90;;;;;;;18.46;29.79;98406.13;4487439;32;20076;-84
2022/05/29 01:17:33;;;;;;;3.35;0.88;;;;;;;18.45;30.52;98399.13;4486341;32;20120;-83
2022/05/29 01:20:20;;;;;;;2.08;0.88;;;;;;;18.44;30.54;98404.59;4486420;32;20092;-84
2022/05/29 01:23:14;;;;;;;2.83;0.85;;;;;;;18.45;29.90;98406.31;4473448;32;20103;-84
2022/05/29 01:26:07;;;;;;;1.65;0.62;;;;;;;18.39;29.57;98402.38;4487342;32;20141;-84
2022/05/29 01:28:50;;;;;;;2.97;0.77;;;;;;;18.40;29.55;98395.22;4487141;32;20096;-83
2022/05/29 01:31:21;;;;;;;3.78;0.90;;;;;;;18.42;29.81;98398.56;4487402;32;20105;-83
2022/05/29 01:33:56;;;;;;;5.25;0.95;;;;;;;18.42;29.81;98398.56;4487358;31;20130;-84
2022/05/29 01:36:38;;;;;;;3.25;0.80;;;;;;;18.39;30.07;98402.38;4486211;32;20140;-84
2022/05/29 01:39:10;;;;;;;3.15;0.80;;;;;;;18.39;30.13;98405.03;4486265;32;20115;-84
2022/05/29 01:41:45;;;;;;;3.70;1.00;;;;;;;18.35;30.07;98400.13;4486092;32;20471;-85
2022/05/29 01:44:31;;;;;;;2.50;0.80;;;;;;;18.27;29.42;98400.81;4486154;32;20107;-85
2022/05/29 01:47:13;;;;;;;2.35;0.62;;;;;;;18.30;29.67;98395.22;4485908;32;20095;-85
2022/05/29 01:49:44;;;;;;;2.10;1.00;;;;;;;18.31;30.07;98401.41;4486051;32;20123;-85
2022/05/29 01:52:24;;;;;;;2.35;0.70;;;;;;;18.21;29.55;98404.06;4486018;32;20151;-85
2022/05/29 01:54:59;;;;;;;2.85;0.80;;;;;;;18.27;30.28;98400.81;4486002;32;20075;-85
2022/05/29 01:57:31;;;;;;;2.33;0.60;;;;;;;18.31;30.25;98406.72;4486015;32;20088;-83
2022/05/29 02:00:06;;;;;;;2.53;0.80;;;;;;;18.30;30.21;98399.72;4485989;32;20163;-83
2022/05/29 02:02:39;;;;;;;3.15;0.82;;;;;;;18.28;30.27;98403.38;4485978;32;20131;-83
2022/05/29 02:05:08;;;;;;;3.40;0.98;;;;;;;18.20;29.57;98402.41;4485942;32;20079;-83
2022/05/29 02:07:48;;;;;;;1.85;0.62;;;;;;;18.26;29.50;98400.00;4485747;32;20500;-83
2022/05/29 02:10:39;;;;;;;3.70;0.90;;;;;;;18.27;29.58;98396.38;4486087;32;20476;-83
2022/05/29 02:13:07;;;;;;;3.28;0.88;;;;;;;18.22;29.66;98395.94;4487248;31;20111;-83
2022/05/29 02:15:45;;;;;;;3.08;0.90;;;;;;;18.26;29.50;98388.50;4486759;31;20092;-83
2022/05/29 02:18:18;;;;;;;2.10;0.75;;;;;;;18.17;29.37;98384.00;4485977;32;20131;-83
2022/05/29 02:20:47;;;;;;;4.62;1.00;;;;;;;18.24;29.36;98388.62;4487143;31;20407;-82
2022/05/29 02:23:19;;;;;;;1.70;0.68;;;;;;;18.27;29.61;98385.69;4487006;31;20085;-83
2022/05/29 02:25:45;;;;;;;7.03;1.35;;;;;;;18.32;29.76;98381.75;4485741;32;20084;-83
2022/05/29 02:28:16;;;;;;;4.30;1.00;;;;;;;18.29;29.45;98382.88;4486800;32;20076;-83
2022/05/29 02:30:48;;;;;;;4.30;0.90;;;;;;;18.28;29.61;98390.03;4485698;32;20093;-82
2022/05/29 02:33:23;;;;;;;3.75;0.80;;;;;;;18.31;29.60;98382.72;4486919;32;20462;-83
2022/05/29 02:36:19;;;;;;;3.97;0.90;;;;;;;18.30;29.71;98381.91;4486788;31;20079;-83
2022/05/29 02:39:23;;;;;;;5.20;0.90;;;;;;;18.32;29.59;98379.09;4485761;32;20072;-83
2022/05/29 02:42:07;;;;;;;3.03;0.73;;;;;;;18.34;29.75;98377.94;4422399;32;20129;-83
2022/05/29 02:44:40;;;;;;;2.70;0.77;;;;;;;18.36;29.89;98377.81;4422783;32;20124;-83
2022/05/29 02:47:36;;;;;;;5.93;1.17;;;;;;;18.35;30.06;98373.44;4410118;32;20381;-83
2022/05/29 02:50:22;;;;;;;2.60;0.68;;;;;;;18.36;30.23;98372.47;4417231;32;20100;-83
2022/05/29 02:52:55;;;;;;;4.00;0.80;;;;;;;18.37;30.78;98372.34;4397288;32;20133;-83
2022/05/29 02:55:22;;;;;;;3.03;1.02;;;;;;;18.36;30.55;98373.31;4409917;32;20122;-83
2022/05/29 02:57:49;;;;;;;4.50;0.95;;;;;;;18.33;30.44;98370.09;4409803;32;20571;-83
2022/05/29 03:00:15;;;;;;;2.05;0.70;;;;;;;18.32;30.13;98371.91;4396843;32;20692;-83
2022/05/29 03:03:05;;;;;;;3.58;0.80;;;;;;;18.31;30.05;98372.94;4422220;32;20117;-84
2022/05/29 03:05:51;;;;;;;3.30;0.90;;;;;;;18.29;29.83;98372.19;4413542;32;20101;-84
2022/05/29 03:08:31;;;;;;;3.75;0.90;;;;;;;18.30;29.87;98371.22;4409336;32;20110;-83
2022/05/29 03:11:09;;;;;;;4.55;0.98;;;;;;;18.32;29.95;98365.75;4422437;32;20196;-84
2022/05/29 03:13:40;;;;;;;4.53;1.10;;;;;;;18.32;30.12;98355.94;4409413;32;20489;-84
2022/05/29 03:16:24;;;;;;;2.95;0.90;;;;;;;18.34;30.36;98356.63;4422092;32;20116;-83
2022/05/29 03:19:09;;;;;;;3.92;0.85;;;;;;;18.26;29.99;98351.16;4459630;32;20088;-83
2022/05/29 03:21:45;;;;;;;3.62;0.90;;;;;;;18.25;29.81;98358.34;4486564;31;20091;-83
2022/05/29 03:24:33;;;;;;;2.45;0.77;;;;;;;18.31;29.87;98353.41;4486542;31;20134;-84
2022/05/29 03:27:14;;;;;;;3.00;0.70;;;;;;;18.33;30.15;98344.28;4486321;32;20080;-83
2022/05/29 03:29:47;;;;;;;4.10;0.90;;;;;;;18.40;29.99;98350.69;4487110;32;20092;-84
2022/05/29 03:32:13;;;;;;;5.40;1.00;;;;;;;18.38;30.23;98347.34;4473995;32;20115;-84
2022/05/29 03:34:39;;;;;;;3.65;0.80;;;;;;;18.37;29.84;98343.00;4486977;32;20535;-83
2022/05/29 03:37:06;;;;;;;5.20;0.93;;;;;;;18.33;28.99;98340.75;4488111;31;20104;-83
2022/05/29 03:39:32;;;;;;;2.80;0.88;;;;;;;18.19;28.93;98342.88;4488155;31;20072;-83
2022/05/29 03:41:58;;;;;;;5.87;1.10;;;;;;;18.02;29.06;98343.59;4488077;31;20073;-83
2022/05/29 03:44:24;;;;;;;2.50;0.70;;;;;;;18.12;29.24;98340.94;4486916;32;20427;-83
2022/05/29 03:46:49;;;;;;;2.20;0.75;;;;;;;18.13;29.22;98335.47;4488089;31;20454;-82
2022/05/29 03:49:17;;;;;;;3.90;0.80;;;;;;;18.11;29.69;98339.25;4486788;32;20127;-82
2022/05/29 03:51:42;;;;;;;;;;;;;;;17.96;29.53;98336.19;4487203;32;20201;-83
2022/05/29 03:54:08;;;;;;;2.08;0.90;;;;;;;18.22;29.15;98333.78;4473752;32;19988;-82
2022/05/29 03:56:33;;;;;;;4.97;1.20;;;;;;;17.95;29.38;98346.00;4488042;31;20084;-82
2022/05/29 03:58:59;;;;;;;2.65;0.80;;;;;;;17.89;29.66;98343.91;4488015;31;20064;-82
2022/05/29 04:01:25;;;;;;;4.00;0.73;;;;;;;18.19;29.33;98334.88;4487898;32;20073;-83
2022/05/29 04:03:53;;;;;;;2.03;0.80;;;;;;;18.28;29.93;98342.03;4486717;32;20127;-82
2022/05/29 04:06:23;;;;;;;6.10;0.98;;;;;;;18.33;29.88;98335.44;4486894;32;20111;-83
2022/05/29 04:14:18;;;;;;;5.35;0.95;;;;;;;18.54;30.02;98343.22;4486780;32;20490;-83
2022/05/29 04:16:44;;;;;;;4.90;1.12;;;;;;;18.56;29.62;98335.94;4487849;31;20088;-83
2022/05/29 04:19:10;;;;;;;3.03;0.80;;;;;;;18.64;29.58;98336.88;4487926;32;20084;-83
2022/05/29 04:21:36;;;;;;;4.53;0.90;;;;;;;18.54;29.04;98337.91;4487759;31;20145;-83
2022/05/29 04:24:01;;;;;;;3.22;0.85;;;;;;;18.61;29.30;98339.00;4487788;31;20101;-83
2022/05/29 04:26:26;;;;;;;4.97;0.93;;;;;;;18.62;28.87;98338.00;4487744;31;20180;-84
2022/05/29 04:28:52;;;;;;;6.35;1.08;;;;;;;18.54;28.92;98338.72;4487390;31;20473;-84
2022/05/29 04:31:17;;;;;;;2.70;0.80;;;;;;;18.74;29.46;98342.19;4487834;31;20404;-83
2022/05/29 04:33:43;;;;;;;3.92;0.80;;;;;;;18.74;29.31;98344.84;4487999;31;20459;-84
2022/05/29 04:36:08;;;;;;;3.10;0.88;;;;;;;18.82;29.82;98338.81;4487786;31;20076;-84
2022/05/29 04:38:33;;;;;;;2.62;0.80;;;;;;;18.97;30.22;98334.69;4486986;31;20428;-84
2022/05/29 04:41:05;;;;;;;5.05;1.10;;;;;;;19.04;31.04;98341.13;4487337;31;20092;-83
2022/05/29 04:43:31;;;;;;;2.75;0.90;;;;;;;19.01;31.36;98340.56;4486713;32;20562;-83
2022/05/29 04:45:56;;;;;;;4.78;0.82;;;;;;;19.10;31.69;98339.66;4487915;31;20136;-83
2022/05/29 04:48:22;;;;;;;3.67;0.80;;;;;;;19.14;32.02;98337.53;4486513;32;20149;-83
2022/05/29 04:50:48;;;;;;;4.97;0.95;;;;;;;19.24;31.63;98349.00;4486755;32;20084;-83
2022/05/29 04:53:13;;;;;;;4.95;1.10;;;;;;;19.26;32.15;98365.72;4487706;31;20096;-83
2022/05/29 04:55:40;;;;;;;3.33;0.90;;;;;;;19.15;33.09;98364.09;4487911;31;20080;-83
2022/05/29 04:58:06;;;;;;;5.28;1.30;;;;;;;19.06;33.83;98356.97;4487853;31;20491;-83
2022/05/29 05:00:32;;;;;;;3.35;1.10;;;;;;;19.03;34.19;98368.78;4486648;32;20096;-83
2022/05/29 05:02:58;;;;;;;3.20;1.00;;;;;;;19.05;34.28;98360.63;4487854;31;20380;-84
2022/05/29 05:05:24;;;;;;;1.85;0.90;;;;;;;19.00;34.28;98362.87;4487413;31;20092;-84
2022/05/29 05:07:49;;;;;;;4.57;1.10;;;;;;;18.93;34.91;98364.47;4487440;31;20114;-83
2022/05/29 05:10:17;;;;;;;5.82;1.23;;;;;;;18.86;35.46;98369.56;4487428;31;20106;-83
2022/05/29 05:12:43;;;;;;;4.37;1.30;;;;;;;18.44;36.97;98364.59;4487365;31;20119;-83
2022/05/29 05:15:09;;;;;;;5.95;1.37;;;;;;;18.60;36.67;98361.31;4486263;32;20112;-83
2022/05/29 05:17:35;;;;;;;5.87;1.50;;;;;;;18.66;36.92;98361.59;4486304;32;20550;-84
2022/05/29 05:20:00;;;;;;;6.82;1.80;;;;;;;18.47;37.61;98361.66;4487449;31;20085;-84
2022/05/29 05:22:26;;;;;;;5.80;1.40;;;;;;;18.53;37.04;98360.25;4486353;32;20119;-84
2022/05/29 05:24:52;;;;;;;5.65;1.90;;;;;;;18.66;36.72;98356.25;4487643;31;20077;-84
2022/05/29 05:27:17;;;;;;;3.70;1.40;;;;;;;18.83;35.94;98357.34;4487463;31;20097;-83
2022/05/29 05:29:43;;;;;;;7.57;1.58;;;;;;;18.96;34.78;98350.84;4487778;31;20076;-83
2022/05/29 05:32:09;;;;;;;3.20;1.10;;;;;;;18.99;35.06;98348.72;4486090;32;20409;-83
2022/05/29 05:34:34;;;;;;;7.68;1.70;;;;;;;19.13;34.31;98349.22;4487355;31;20080;-83
2022/05/29 05:37:00;;;;;;;4.65;1.20;;;;;;;19.23;34.30;98350.81;4487354;31;20175;-84
2022/05/29 05:39:25;;;;;;;5.57;1.00;;;;;;;19.32;34.15;98350.94;4487244;31;20080;-84
2022/05/29 05:41:51;;;;;;;3.37;0.98;;;;;;;19.38;33.10;98343.16;4487297;31;20104;-84
2022/05/29 05:44:16;;;;;;;5.18;1.20;;;;;;;19.41;31.59;98345.53;4486098;32;20119;-83
2022/05/29 05:46:53;;;;;;;3.75;1.20;;;;;;;19.60;31.06;98341.03;4486098;32;20085;-83
2022/05/29 05:49:20;;;;;;;2.85;0.90;;;;;;;19.78;31.02;98339.25;4487308;31;20098;-84
2022/05/29 05:51:46;;;;;;;2.78;0.98;;;;;;;19.92;30.97;98329.84;4485564;32;20144;-84
2022/05/29 05:54:12;;;;;;;5.75;1.20;;;;;;;19.98;30.64;98331.87;4486134;32;20505;-83
2022/05/29 05:56:41;;;;;;;4.95;1.15;;;;;;;19.99;31.30;98327.38;4487184;31;20158;-83
2022/05/29 05:59:07;;;;;;;4.80;1.10;;;;;;;20.07;31.22;98331.94;4487210;31;20156;-84
2022/05/29 06:01:32;;;;;;;4.35;1.20;;;;;;;20.02;30.61;98327.06;4485948;32;20127;-83
2022/05/29 06:03:58;;;;;;;5.05;1.30;;;;;;;20.12;30.38;98330.47;4486942;31;20103;-82
2022/05/29 06:06:23;;;;;;;5.25;0.90;;;;;;;20.28;30.47;98318.22;4487012;31;20152;-82
2022/05/29 06:08:48;;;;;;;4.32;0.93;;;;;;;20.32;29.24;98330.28;4487035;31;20218;-83
2022/05/29 06:11:14;;;;;;;2.70;0.90;;;;;;;20.32;28.95;98325.78;4487061;31;20435;-83
2022/05/29 06:13:39;;;;;;;5.45;1.10;;;;;;;20.42;28.36;98325.69;4486937;31;20103;-82
2022/05/29 06:16:05;;;;;;;2.28;1.00;;;;;;;20.46;28.42;98319.03;4487076;31;20093;-83
2022/05/29 06:18:31;;;;;;;2.42;0.82;;;;;;;20.64;27.69;98318.97;4486985;31;20085;-83
2022/05/29 06:21:02;;;;;;;7.70;1.10;;;;;;;20.89;27.11;98314.56;4486970;31;20088;-83
2022/05/29 06:23:28;;;;;;;5.78;1.10;;;;;;;21.06;26.83;98320.00;4470782;32;484011;-83
2022/05/29 06:25:53;;;;;;;5.03;0.95;;;;;;;21.24;26.72;98323.41;4486849;31;20073;-82
2022/05/29 06:28:19;;;;;;;5.22;1.12;;;;;;;21.34;26.98;98317.91;4486721;32;20337;-80
2022/05/29 06:30:44;;;;;;;2.05;0.77;;;;;;;21.45;26.78;98316.78;4486976;31;20363;-80
2022/05/29 06:33:13;;;;;;;6.75;1.12;;;;;;;21.58;27.10;98323.34;4486894;31;20141;-80
2022/05/29 06:35:39;;;;;;;4.28;1.17;;;;;;;21.58;26.93;98317.16;4486946;31;20092;-80
2022/05/29 06:38:04;;;;;;;2.83;1.10;;;;;;;21.60;26.62;98317.81;4485673;32;20127;-81
2022/05/29 06:40:30;;;;;;;3.80;1.10;;;;;;;21.78;26.42;98323.84;4486541;31;20448;-82
2022/05/29 06:42:56;;;;;;;4.90;1.30;;;;;;;21.84;26.41;98326.88;4486802;31;20096;-82
2022/05/29 06:45:21;;;;;;;5.00;1.05;;;;;;;21.89;26.67;98320.03;4486648;31;20069;-85
2022/05/29 06:47:47;;;;;;;4.32;1.20;;;;;;;21.97;26.49;98330.75;4487074;31;20088;-80
2022/05/29 06:50:12;;;;;;;5.55;1.27;;;;;;;22.01;27.12;98319.69;4485446;32;20395;-81
2022/05/29 06:52:38;;;;;;;4.37;1.25;;;;;;;22.11;27.59;98313.12;4485442;32;20088;-78
2022/05/29 06:55:05;;;;;;;8.65;1.42;;;;;;;22.23;27.83;98320.84;4485549;32;20102;-79
2022/05/29 06:57:36;;;;;;;4.78;1.50;;;;;;;22.32;27.59;98314.50;4484864;32;20089;-78
2022/05/29 07:08:28;;;;;;;4.15;1.10;;;;;;;22.91;27.15;98323.06;4485527;32;20102;-78
2022/05/29 07:10:55;;;;;;;4.07;1.05;;;;;;;23.11;26.79;98314.59;4485229;32;20143;-78
2022/05/29 07:13:21;;;;;;;3.20;1.10;;;;;;;23.30;26.70;98308.78;4485331;32;20113;-78
2022/05/29 07:15:46;;;;;;;5.18;1.70;;;;;;;23.42;25.42;98311.91;4485106;32;20550;-79
2022/05/29 07:18:12;;;;;;;6.65;1.42;;;;;;;23.34;26.24;98307.41;4486325;31;20105;-78
2022/05/29 07:20:38;;;;;;;4.10;1.10;;;;;;;23.38;26.54;98307.91;4486336;31;20117;-77
2022/05/29 07:23:03;;;;;;;5.32;1.23;;;;;;;23.31;24.90;98301.56;4486232;32;20100;-78
2022/05/29 07:25:29;;;;;;;6.70;1.12;;;;;;;23.43;25.51;98300.16;4486179;31;20098;-78
2022/05/29 07:27:54;;;;;;;4.60;1.15;;;;;;;23.48;24.70;98308.50;4485942;32;20148;-78
2022/05/29 07:30:20;;;;;;;3.47;0.90;;;;;;;23.55;23.94;98304.09;4485310;32;20123;-78
2022/05/29 07:32:47;;;;;;;3.67;0.98;;;;;;;23.70;23.62;98306.00;4486390;31;20472;-76
2022/05/29 07:35:13;;;;;;;4.18;0.90;;;;;;;23.95;23.39;98298.59;4486449;31;20098;-77
2022/05/29 07:37:39;;;;;;;5.00;1.15;;;;;;;24.11;22.75;98297.62;4485176;32;20080;-79
2022/05/29 07:40:05;;;;;;;4.80;1.17;;;;;;;24.12;23.30;98302.81;4486226;31;20100;-78
2022/05/29 07:45:14;;;;;;;4.00;1.27;;;;;;;24.10;22.64;98299.47;4485918;32;20275;-78
2022/05/29 07:47:42;;;;;;;1.33;0.80;;;;;;;24.24;22.51;98297.00;4485840;31;20109;-78
2022/05/29 07:50:15;;;;;;;3.12;0.90;;;;;;;24.30;22.87;98293.59;4485968;31;20100;-79
2022/05/29 07:52:40;;;;;;;4.03;1.08;;;;;;;24.28;22.09;98288.38;4485711;31;20118;-77
2022/05/29 07:55:06;;;;;;;5.45;0.90;;;;;;;24.33;22.03;98285.97;4485804;31;20076;-76
2022/05/29 07:57:31;;;;;;;3.25;1.00;;;;;;;24.41;22.17;98285.03;4484414;32;20085;-75
2022/05/29 07:59:57;;;;;;;4.50;1.20;;;;;;;24.46;22.29;98282.62;4485866;31;20551;-76
2022/05/29 08:02:22;;;;;;;2.62;0.80;;;;;;;24.57;22.13;98281.38;4484511;32;20076;-77
2022/05/29 08:04:48;;;;;;;5.00;0.82;;;;;;;24.59;21.85;98283.88;4484556;32;20114;-75
2022/05/29 08:07:16;;;;;;;4.00;1.10;;;;;;;24.65;21.75;98283.16;4485434;31;20077;-76
2022/05/29 08:09:42;;;;;;;2.53;1.05;;;;;;;24.71;22.20;98271.63;4484393;32;20127;-77
2022/05/29 08:12:08;;;;;;;5.18;1.25;;;;;;;24.78;22.06;98283.31;4485545;32;20153;-77
2022/05/29 08:14:33;;;;;;;5.28;1.00;;;;;;;24.89;21.82;98272.06;4485852;32;20093;-76
2022/05/29 08:16:59;;;;;;;2.53;1.00;;;;;;;24.83;21.99;98271.97;4486607;32;20317;-76
2022/05/29 08:19:24;;;;;;;3.50;1.20;;;;;;;24.95;21.89;98277.72;4487823;31;20574;-76
2022/05/29 08:21:50;;;;;;;4.47;0.90;;;;;;;25.03;22.13;98267.66;4487849;31;20088;-83
2022/05/29 08:32:41;;;;;;;3.37;0.90;;;;;;;25.14;21.72;98254.72;4438857;32;20140;-72
2022/05/29 08:35:07;;;;;;;4.68;1.08;;;;;;;25.03;21.86;98258.75;4438741;32;20113;-80
2022/05/29 08:37:33;;;;;;;1.87;0.80;;;;;;;25.05;22.33;98260.25;4438734;32;20483;-81
2022/05/29 08:40:00;;;;;;;3.45;1.00;;;;;;;25.13;21.88;98264.69;4438841;32;20132;-81
2022/05/29 08:42:29;;;;;;;8.25;1.30;;;;;;;25.31;21.57;98264.28;4438600;32;20448;-83
2022/05/29 08:44:55;;;;;;;1.80;0.80;;;;;;;25.44;21.03;98255.47;4425879;32;20077;-80
2022/05/29 08:47:26;;;;;;;4.68;1.00;;;;;;;25.37;21.15;98254.59;4438596;32;20136;-81
2022/05/29 08:49:52;;;;;;;4.10;1.05;;;;;;;25.40;21.38;98248.81;4438682;32;20171;-82
2022/05/29 08:52:26;;;;;;;5.03;1.02;;;;;;;25.46;21.26;98254.28;4438529;32;20137;-87
2022/05/29 09:05:30;;;;;;;6.05;1.05;;;;;;;24.24;22.48;98249.41;4525928;31;121060;-80
2022/05/29 09:07:58;;;;;;;2.47;0.90;;;;;;;24.24;22.48;98249.41;4514887;31;20088;-80
2022/05/29 09:10:46;;;;;;;3.33;0.77;;;;;;;24.27;22.17;98254.41;4487275;31;20090;-80
2022/05/29 09:13:28;;;;;;;5.35;1.30;;;;;;;24.68;21.95;98245.06;4500463;31;20080;-80
2022/05/29 09:15:57;;;;;;;4.00;0.90;;;;;;;24.77;21.88;98248.50;4514946;31;20388;-80
2022/05/29 09:18:30;;;;;;;4.22;1.00;;;;;;;25.02;21.70;98241.75;4500405;31;20096;-81
2022/05/29 09:21:14;;;;;;;4.32;1.05;;;;;;;25.05;22.01;98240.53;4500360;31;20088;-83
2022/05/29 09:24:03;;;;;;;3.53;1.00;;;;;;;24.92;21.76;98249.31;4515001;31;20072;-81
2022/05/29 09:26:30;;;;;;;;;;;;;;;25.10;21.17;98244.31;4514986;31;20121;-83
2022/05/29 09:28:56;;;;;;;4.18;0.90;;;;;;;25.06;21.64;98239.50;4500385;31;20341;-82
2022/05/29 09:31:24;;;;;;;3.37;1.10;;;;;;;25.08;21.48;98245.53;4514566;31;20084;-82
2022/05/29 09:33:50;;;;;;;4.12;1.08;;;;;;;25.03;21.69;98243.41;4500525;31;20155;-82
2022/05/29 09:36:44;;;;;;;4.50;1.10;;;;;;;25.13;21.55;98243.13;4514663;31;20409;-83
2022/05/29 09:39:35;;;;;;;2.70;0.82;;;;;;;25.27;20.73;98236.03;4434053;32;20608;-82
2022/05/29 09:42:08;;;;;;;3.05;1.00;;;;;;;25.41;20.83;98237.84;4434002;32;20086;-83
2022/05/29 09:44:33;;;;;;;4.45;1.30;;;;;;;25.50;20.99;98230.47;4433938;32;20151;-83
2022/05/29 09:49:49;;;;;;;4.68;1.00;;;;;;;25.48;21.00;98237.91;4434000;32;20525;-83
2022/05/29 09:52:31;;;;;;;4.28;1.15;;;;;;;25.48;21.13;98236.03;4421981;32;20112;-84
2022/05/29 09:55:05;;;;;;;3.50;1.08;;;;;;;25.72;21.08;98230.44;4421206;32;20209;-81
2022/05/29 09:57:49;;;;;;;3.83;1.30;;;;;;;25.72;21.18;98227.75;4433824;32;20493;-82
2022/05/29 10:00:38;;;;;;;5.07;1.10;;;;;;;25.89;20.92;98229.97;4434021;32;20143;-81
2022/05/29 10:03:08;;;;;;;4.87;1.10;;;;;;;25.70;20.69;98220.66;4433639;32;20147;-80
2022/05/29 10:05:38;;;;;;;2.95;0.95;;;;;;;25.69;20.24;98219.03;4433961;32;20420;-81
2022/05/29 10:08:17;;;;;;;3.30;0.93;;;;;;;25.70;20.51;98223.38;4433974;32;20101;-78
2022/05/29 10:10:43;;;;;;;5.00;1.20;;;;;;;25.85;20.34;98217.06;4433734;32;20107;-79
2022/05/29 10:13:09;;;;;;;4.10;1.02;;;;;;;25.96;20.44;98208.47;4421030;32;20291;-81
2022/05/29 10:15:40;;;;;;;5.47;1.00;;;;;;;25.92;20.60;98212.56;4443053;31;20103;-76
2022/05/29 10:18:28;;;;;;;4.90;1.10;;;;;;;26.01;19.95;98207.88;4503817;31;20092;-77
2022/05/29 10:21:15;;;;;;;3.75;0.90;;;;;;;26.16;20.44;98208.59;4491440;31;20101;-77
2022/05/29 10:23:46;;;;;;;3.70;1.10;;;;;;;26.18;20.73;98213.81;4500489;31;20155;-76
2022/05/29 10:26:32;;;;;;;3.90;0.93;;;;;;;26.06;20.98;98202.72;4500678;31;20110;-77
2022/05/29 10:28:58;;;;;;;5.18;1.17;;;;;;;26.05;20.74;98204.56;4500550;31;20483;-77
2022/05/29 10:31:36;;;;;;;3.12;1.10;;;;;;;25.97;20.71;98202.03;4486169;31;20119;-77
2022/05/29 10:34:09;;;;;;;;;;;;;;;26.06;20.69;98206.25;4486532;31;20096;-76
2022/05/29 10:36:35;;;;;;;3.95;1.00;;;;;;;26.16;20.78;98197.78;4473025;31;19976;-78
2022/05/29 10:39:22;;;;;;;4.57;1.00;;;;;;;26.15;20.83;98198.00;4486011;31;20748;-74
2022/05/29 10:41:49;;;;;;;5.55;1.10;;;;;;;26.17;20.55;98201.31;4486008;31;20100;-75
2022/05/29 10:44:42;;;;;;;3.28;1.00;;;;;;;26.03;20.45;98195.84;4485944;31;20076;-77
2022/05/29 10:47:16;;;;;;;2.85;0.90;;;;;;;25.85;20.95;98199.00;4477794;31;20071;-78
2022/05/29 10:50:21;;;;;;;6.20;1.05;;;;;;;25.76;20.83;98192.09;4494307;31;20115;-79
2022/05/29 10:52:56;;;;;;;4.32;1.00;;;;;;;25.75;20.94;98192.28;4484886;31;20806;-78
2022/05/29 10:55:32;;;;;;;2.55;0.85;;;;;;;25.68;21.54;98197.63;4494278;31;20111;-78
2022/05/29 10:58:39;;;;;;;3.65;1.00;;;;;;;25.70;21.15;98192.88;4486043;31;20107;-79
2022/05/29 11:04:41;;;;;;;4.55;0.90;;;;;;;25.68;21.21;98193.06;4426476;32;20123;-81
2022/05/29 11:07:26;;;;;;;4.95;1.00;;;;;;;25.56;20.62;98191.94;4442478;32;20113;-78
2022/05/29 11:10:04;;;;;;;5.25;0.90;;;;;;;25.41;19.94;98185.78;4450391;32;20090;-76
2022/05/29 11:12:48;;;;;;;5.25;1.10;;;;;;;25.28;20.24;98192.72;4443821;32;20102;-77
2022/05/29 11:15:54;;;;;;;7.43;1.20;;;;;;;25.33;20.07;98194.00;4443237;32;20135;-77
2022/05/29 11:18:41;;;;;;;4.32;0.80;;;;;;;25.16;19.52;98188.00;4431529;32;20524;-77
2022/05/29 11:21:24;;;;;;;3.50;0.90;;;;;;;25.00;20.02;98195.28;4443956;32;20147;-78
2022/05/29 11:24:21;;;;;;;5.25;1.00;;;;;;;24.62;20.48;98197.34;4437771;32;20299;-77
2022/05/29 11:27:11;;;;;;;2.05;0.90;;;;;;;24.58;21.11;98188.78;4444472;32;20176;-78
2022/05/29 11:29:38;;;;;;;2.12;0.90;;;;;;;24.62;21.19;98182.00;4440254;32;20841;-77
2022/05/29 11:32:09;;;;;;;2.80;0.80;;;;;;;24.73;20.71;98178.00;4450619;32;20128;-76
2022/05/29 11:35:07;;;;;;;3.95;1.05;;;;;;;24.84;20.84;98177.50;4444055;32;20204;-77
2022/05/29 11:38:01;;;;;;;3.75;1.00;;;;;;;24.69;20.71;98166.75;4484046;31;20123;-77
2022/05/29 11:40:32;;;;;;;3.42;0.80;;;;;;;24.73;20.32;98162.66;4464878;31;20114;-76
2022/05/29 11:43:12;;;;;;;6.28;1.08;;;;;;;24.67;20.77;98159.91;4488252;31;20080;-78
2022/05/29 11:51:22;;;;;;;3.78;1.15;;;;;;;24.63;20.82;98167.53;4490314;31;20126;-80
2022/05/29 11:53:51;;;;;;;3.30;1.08;;;;;;;24.93;20.85;98164.75;4489466;31;20447;-80
2022/05/29 11:56:33;;;;;;;5.70;1.17;;;;;;;25.05;20.36;98160.53;4487994;31;20131;-81
2022/05/29 11:59:05;;;;;;;4.05;0.80;;;;;;;25.13;19.70;98162.25;4488260;31;20096;-81
2022/05/29 12:01:40;;;;;;;4.95;1.00;;;;;;;25.21;19.88;98155.91;4489997;31;20206;-80
2022/05/29 12:04:29;;;;;;;3.15;0.70;;;;;;;25.15;19.79;98152.12;4486646;32;20076;-80
2022/05/29 12:07:05;;;;;;;3.00;0.98;;;;;;;25.26;19.76;98156.19;4495395;31;20087;-80
2022/05/29 12:09:42;;;;;;;4.15;1.17;;;;;;;25.31;20.39;98145.66;4490334;31;20080;-80
2022/05/29 12:12:12;;;;;;;5.45;1.00;;;;;;;25.38;20.27;98145.72;4488253;31;20092;-80
2022/05/29 12:14:46;;;;;;;2.40;0.80;;;;;;;25.40;20.04;98149.03;4488316;31;20084;-81
2022/05/29 12:17:23;;;;;;;3.30;0.90;;;;;;;25.21;20.11;98150.53;4487968;31;20099;-81
2022/05/29 12:19:53;;;;;;;5.05;1.20;;;;;;;25.19;19.91;98153.41;4486761;31;20108;-80
2022/05/29 12:22:26;;;;;;;4.22;1.10;;;;;;;25.12;20.63;98152.50;4487809;31;20108;-79
2022/05/29 12:24:52;;;;;;;5.30;1.10;;;;;;;24.89;21.04;98149.97;4487796;31;20491;-79
2022/05/29 12:27:20;;;;;;;4.47;1.10;;;;;;;24.88;21.58;98140.25;4487869;31;20514;-78
2022/05/29 12:29:51;;;;;;;3.85;1.00;;;;;;;24.89;21.62;98137.34;4487824;31;20092;-79
2022/05/29 12:32:25;;;;;;;4.47;0.93;;;;;;;24.82;21.17;98139.16;4497668;31;20109;-78
2022/05/29 12:34:54;;;;;;;5.40;1.20;;;;;;;24.84;20.96;98133.53;4494496;31;20068;-79
2022/05/29 12:37:34;;;;;;;4.03;1.08;;;;;;;24.72;21.31;98139.47;4487737;31;20425;-78
2022/05/29 12:40:21;;;;;;;3.53;1.02;;;;;;;24.82;21.78;98141.84;4499119;31;20096;-79
2022/05/29 12:43:11;;;;;;;4.10;0.90;;;;;;;24.97;21.46;98141.78;4493747;31;20143;-78
2022/05/29 12:45:50;;;;;;;5.87;1.27;;;;;;;25.01;20.79;98142.22;4486720;31;20084;-78